Time;durP1;ratioP1;P1;durP2;ratioP2;P2;SDS_P1;SDS_P2;PMS_P1;PMS_P2;Temp;Humidity;BMP_temperature;BMP_pressure;BME280_temperature;BME280_humidity;BME280_pressure;Samples;Min_cycle;Max_cycle;Signal;HPM_P1;HPM_P2
2022/07/20 00:00:40;;;;;;;9.93;5.93;;;;;;;16.20;86.09;93277.75;2123066;27;20062;-73
2022/07/20 00:01:41;;;;;;;9.55;6.70;;;;;;;16.14;86.55;93272.22;2122735;27;20027;-73
2022/07/20 00:02:42;;;;;;;10.10;5.88;;;;;;;16.13;86.42;93278.81;2123346;27;20043;-73
2022/07/20 00:03:45;;;;;;;6.50;5.68;;;;;;;16.07;87.04;93269.81;2123109;27;20111;-71
2022/07/20 00:04:49;;;;;;;16.10;6.60;;;;;;;16.01;88.11;93277.72;2122788;27;20046;-71
2022/07/20 00:05:50;;;;;;;12.60;6.45;;;;;;;16.05;87.54;93283.00;2122952;27;20504;-73
2022/07/20 00:06:51;;;;;;;10.00;6.00;;;;;;;16.07;86.64;93278.66;2122971;27;20027;-71
2022/07/20 00:07:52;;;;;;;10.05;6.00;;;;;;;16.03;87.04;93280.75;2123002;27;20072;-75
2022/07/20 00:11:33;;;;;;;12.43;6.32;;;;;;;16.05;86.91;93283.00;2122307;27;20035;-70
2022/07/20 00:12:34;;;;;;;11.48;6.65;;;;;;;16.07;86.93;93272.53;2123399;27;20025;-73
2022/07/20 00:13:35;;;;;;;12.30;7.55;;;;;;;16.08;86.86;93276.72;2114338;27;20485;-73
2022/07/20 00:14:36;;;;;;;10.05;6.80;;;;;;;16.02;86.93;93281.94;2113897;27;20050;-73
2022/07/20 00:15:39;;;;;;;12.55;7.07;;;;;;;16.03;86.71;93278.03;2114364;27;20035;-73
2022/07/20 00:16:40;;;;;;;12.23;7.40;;;;;;;15.93;87.32;93284.59;2114976;27;20028;-73
2022/07/20 00:17:41;;;;;;;10.63;6.72;;;;;;;15.94;86.92;93286.13;2115043;27;20591;-73
2022/07/20 00:18:42;;;;;;;10.98;7.22;;;;;;;15.96;87.24;93277.56;2114558;27;20028;-73
2022/07/20 00:19:43;;;;;;;12.00;7.05;;;;;;;15.91;87.60;93284.31;2114140;27;20040;-73
2022/07/20 00:20:44;;;;;;;10.65;6.68;;;;;;;15.89;87.06;93275.91;2114268;27;20063;-74
2022/07/20 00:21:45;;;;;;;10.32;6.60;;;;;;;15.91;87.45;93273.53;2114477;27;20492;-73
2022/07/20 00:22:46;;;;;;;11.20;6.85;;;;;;;15.93;88.82;93268.41;2114502;28;20023;-71
2022/07/20 00:23:47;;;;;;;10.13;6.35;;;;;;;15.94;87.73;93274.59;2112751;27;20567;-71
2022/07/20 00:24:48;;;;;;;12.20;6.90;;;;;;;15.90;87.87;93271.28;2114753;27;20016;-71
2022/07/20 00:25:49;;;;;;;11.52;6.65;;;;;;;15.86;88.70;93272.16;2113935;28;20524;-71
2022/07/20 00:26:50;;;;;;;11.73;7.00;;;;;;;15.88;88.02;93270.97;2114592;28;20031;-70
2022/07/20 00:27:51;;;;;;;10.23;7.00;;;;;;;15.89;87.65;93270.50;2114820;27;20029;-70
2022/07/20 00:28:52;;;;;;;12.63;7.10;;;;;;;15.84;88.30;93271.09;2114155;27;20044;-71
2022/07/20 00:29:53;;;;;;;10.90;6.65;;;;;;;15.83;88.48;93266.91;2114398;27;20028;-72
2022/07/20 00:30:54;;;;;;;9.55;6.72;;;;;;;15.81;88.58;93269.31;2114276;27;20469;-73
2022/07/20 00:31:55;;;;;;;13.68;6.60;;;;;;;15.80;88.52;93267.78;2113981;28;20161;-73
2022/07/20 00:32:56;;;;;;;14.48;7.07;;;;;;;15.80;89.27;93267.78;2114778;27;20737;-73
2022/07/20 00:34:00;;;;;;;11.10;6.47;;;;;;;15.80;89.18;93271.25;2113816;27;20525;-73
2022/07/20 00:35:01;;;;;;;10.60;6.70;;;;;;;15.82;88.91;93265.41;2114313;27;20362;-73
2022/07/20 00:36:04;;;;;;;8.35;6.60;;;;;;;15.84;89.81;93271.09;2114314;28;20027;-73
2022/07/20 00:37:07;;;;;;;12.82;6.82;;;;;;;15.90;89.44;93263.94;2114548;27;20514;-74
2022/07/20 00:38:09;;;;;;;12.57;6.47;;;;;;;15.89;88.40;93262.41;2114265;27;20099;-73
2022/07/20 00:39:10;;;;;;;10.27;6.57;;;;;;;15.88;89.03;93265.56;2114361;27;20035;-73
2022/07/20 00:40:13;;;;;;;9.32;6.35;;;;;;;15.85;89.96;93265.28;2114141;27;20055;-73
2022/07/20 00:41:14;;;;;;;11.15;6.43;;;;;;;15.81;90.52;93266.63;2113160;27;20035;-73
2022/07/20 00:42:15;;;;;;;11.55;6.82;;;;;;;15.56;91.83;93267.53;2113758;28;20092;-74
2022/07/20 00:43:16;;;;;;;11.07;6.38;;;;;;;15.56;91.90;93262.91;2114424;28;20035;-71
2022/07/20 00:44:17;;;;;;;9.15;6.78;;;;;;;15.67;91.04;93267.16;2114421;27;20422;-71
2022/07/20 00:45:18;;;;;;;16.00;6.93;;;;;;;15.70;91.11;93272.41;2113306;27;20035;-70
2022/07/20 00:46:19;;;;;;;11.82;5.90;;;;;;;15.74;91.10;93264.19;2114715;27;20024;-70
2022/07/20 00:47:20;;;;;;;12.52;6.70;;;;;;;15.78;90.77;93262.09;2114160;27;20036;-74
2022/07/20 00:48:21;;;;;;;15.35;7.00;;;;;;;15.66;92.28;93271.03;2114747;27;20055;-74
2022/07/20 00:49:22;;;;;;;10.43;6.28;;;;;;;15.68;91.51;93265.97;2114270;27;20031;-71
2022/07/20 00:50:23;;;;;;;10.43;6.63;;;;;;;15.71;93.09;93260.44;2114889;27;20377;-71
2022/07/20 00:51:26;;;;;;;11.70;7.03;;;;;;;15.73;91.65;93260.75;2113801;27;20035;-70
2022/07/20 00:52:27;;;;;;;13.73;6.43;;;;;;;15.70;91.36;93258.94;2113264;28;20110;-71
2022/07/20 00:53:28;;;;;;;13.00;6.63;;;;;;;15.67;91.95;93257.16;2114000;27;20040;-74
2022/07/20 00:54:29;;;;;;;14.93;7.13;;;;;;;15.63;91.84;93264.59;2113408;27;20032;-74
2022/07/20 00:55:30;;;;;;;11.27;6.47;;;;;;;15.58;92.08;93262.44;2114063;27;20026;-73
2022/07/20 00:56:33;;;;;;;11.45;6.32;;;;;;;15.62;90.49;93261.13;2114341;27;20072;-73
2022/07/20 00:57:34;;;;;;;10.98;6.72;;;;;;;15.64;91.46;93262.63;2113830;27;20027;-73
2022/07/20 00:58:35;;;;;;;12.27;6.85;;;;;;;15.66;91.38;93263.72;2114665;27;20043;-73
2022/07/20 00:59:36;;;;;;;10.90;6.18;;;;;;;15.65;91.49;93264.91;2114094;27;20024;-73
2022/07/20 01:00:37;;;;;;;13.98;6.13;;;;;;;15.65;90.78;93261.47;2113305;27;20038;-74
2022/07/20 01:01:39;;;;;;;14.90;6.75;;;;;;;15.49;92.92;93268.56;2114612;27;20035;-73
2022/07/20 01:02:41;;;;;;;11.70;6.10;;;;;;;15.57;91.71;93269.78;2114391;27;20042;-70
2022/07/20 01:03:42;;;;;;;10.27;6.50;;;;;;;15.47;92.17;93260.19;2114674;27;20510;-70
2022/07/20 01:04:43;;;;;;;10.88;6.60;;;;;;;15.56;91.61;93265.59;2113838;27;20560;-70
2022/07/20 01:05:44;;;;;;;13.02;7.55;;;;;;;15.45;92.58;93264.50;2114129;27;20058;-71
2022/07/20 01:06:45;;;;;;;9.77;6.30;;;;;;;15.45;92.76;93267.97;2114616;27;20031;-71
2022/07/20 01:07:48;;;;;;;9.68;6.32;;;;;;;15.48;92.88;93263.63;2114350;27;20469;-70
2022/07/20 01:08:50;;;;;;;10.77;6.80;;;;;;;15.54;91.96;93275.31;2113391;27;20283;-73
2022/07/20 01:09:51;;;;;;;11.75;6.72;;;;;;;15.58;91.61;93260.53;2114460;27;20361;-71
2022/07/20 01:10:53;;;;;;;10.65;5.80;;;;;;;15.52;92.88;93262.28;2113912;27;20115;-71
2022/07/20 01:11:54;;;;;;;9.02;6.03;;;;;;;15.51;91.86;93254.66;2114401;27;20032;-71
2022/07/20 01:12:55;;;;;;;11.23;6.53;;;;;;;15.52;92.06;93256.16;2113722;28;20055;-72
2022/07/20 01:14:03;;;;;;;12.10;6.25;;;;;;;15.36;93.51;93260.59;2116468;27;20042;-72
2022/07/20 01:15:08;;;;;;;9.82;6.28;;;;;;;15.34;93.16;93265.66;2123139;27;20035;-72
2022/07/20 01:16:11;;;;;;;12.73;6.25;;;;;;;15.35;93.02;93259.06;2121985;27;20027;-72
2022/07/20 01:17:12;;;;;;;11.00;6.63;;;;;;;15.41;92.92;93258.47;2122610;27;20031;-72
2022/07/20 01:18:13;;;;;;;10.48;6.65;;;;;;;15.38;93.00;93256.69;2123084;27;20030;-72
2022/07/20 01:19:14;;;;;;;10.85;6.78;;;;;;;15.39;93.31;93258.19;2122714;27;20212;-72
2022/07/20 01:20:17;;;;;;;11.40;6.55;;;;;;;15.40;92.78;93257.75;2122931;27;20035;-71
2022/07/20 01:21:18;;;;;;;9.88;6.72;;;;;;;15.32;93.30;93262.66;2121696;27;20376;-72
2022/07/20 01:22:19;;;;;;;8.98;6.13;;;;;;;15.32;93.61;93257.28;2122534;27;20118;-72
2022/07/20 01:23:20;;;;;;;10.10;6.10;;;;;;;15.23;94.43;93254.53;2123042;27;20076;-73
2022/07/20 01:24:21;;;;;;;11.85;6.20;;;;;;;15.26;94.38;93255.59;2113577;27;20032;-71
2022/07/20 01:25:22;;;;;;;10.50;6.70;;;;;;;15.18;94.69;93255.09;2113648;28;20032;-72
2022/07/20 01:26:24;;;;;;;10.30;6.22;;;;;;;15.21;93.89;93256.16;2122319;27;20039;-72
2022/07/20 01:27:25;;;;;;;11.50;6.18;;;;;;;15.22;94.16;93258.41;2121919;27;20788;-72
2022/07/20 01:28:28;;;;;;;11.20;7.00;;;;;;;15.19;93.76;93255.84;2122919;27;20031;-72
2022/07/20 01:29:29;;;;;;;12.68;7.00;;;;;;;15.19;94.20;93256.63;2122296;27;20088;-72
2022/07/20 01:30:31;;;;;;;17.00;6.43;;;;;;;15.20;95.17;93255.41;2122779;27;20023;-72
2022/07/20 01:31:32;;;;;;;12.93;7.15;;;;;;;15.22;94.01;93261.09;2122534;27;20444;-72
2022/07/20 01:32:33;;;;;;;13.07;6.07;;;;;;;15.05;96.38;93260.56;2121561;27;20027;-73
2022/07/20 01:33:34;;;;;;;10.45;6.22;;;;;;;15.16;95.34;93267.50;2123553;27;20445;-72
2022/07/20 01:34:35;;;;;;;10.35;7.05;;;;;;;15.12;95.62;93264.94;2122301;27;20102;-72
2022/07/20 01:35:36;;;;;;;10.27;5.97;;;;;;;15.15;95.51;93260.63;2122688;27;20019;-72
2022/07/20 01:36:37;;;;;;;9.70;6.68;;;;;;;15.01;97.38;93268.03;2122890;27;20460;-72
2022/07/20 01:37:38;;;;;;;8.05;6.47;;;;;;;14.97;97.84;93263.94;2121611;27;20027;-72
2022/07/20 01:38:39;;;;;;;11.25;6.72;;;;;;;15.06;97.13;93269.41;2122940;27;20034;-73
2022/07/20 01:39:40;;;;;;;11.00;6.85;;;;;;;15.05;97.31;93265.94;2122679;27;20035;-74
2022/07/20 01:40:41;;;;;;;11.60;6.05;;;;;;;15.06;97.58;93272.84;2123571;27;20029;-73
2022/07/20 01:41:42;;;;;;;10.32;6.03;;;;;;;15.06;97.34;93261.34;2122260;27;20027;-73
2022/07/20 01:42:43;;;;;;;10.00;5.97;;;;;;;15.09;97.07;93263.13;2122469;27;20034;-72
2022/07/20 01:43:44;;;;;;;11.05;6.90;;;;;;;15.01;97.49;93261.88;2113893;28;20035;-73
2022/07/20 01:44:45;;;;;;;15.70;7.18;;;;;;;15.05;96.69;93263.25;2113763;27;20066;-73
2022/07/20 01:45:46;;;;;;;14.20;6.50;;;;;;;15.09;96.31;93268.50;2123020;27;20027;-73
2022/07/20 01:46:50;;;;;;;11.60;6.75;;;;;;;15.07;97.00;93263.56;2121775;27;20509;-73
2022/07/20 01:47:51;;;;;;;14.15;6.88;;;;;;;15.04;97.24;93259.06;2121648;27;20011;-74
2022/07/20 01:48:52;;;;;;;11.55;7.18;;;;;;;15.03;96.78;93262.22;2122506;27;20120;-72
2022/07/20 01:49:53;;;;;;;10.15;6.72;;;;;;;15.02;97.29;93258.78;2122097;27;20065;-73
2022/07/20 01:50:54;;;;;;;13.63;6.80;;;;;;;15.00;96.83;93266.50;2122406;27;20023;-73
2022/07/20 01:51:54;;;;;;;12.32;6.55;;;;;;;14.96;96.70;93265.91;2122768;27;20625;-73
2022/07/20 01:52:55;;;;;;;12.25;6.43;;;;;;;14.96;97.43;93263.19;2112629;27;20647;-73
2022/07/20 01:53:56;;;;;;;10.73;7.07;;;;;;;15.02;95.99;93266.84;2113772;27;20032;-74
2022/07/20 01:54:57;;;;;;;11.18;7.10;;;;;;;15.04;96.70;93263.69;2122404;27;20027;-73
2022/07/20 01:55:58;;;;;;;11.35;7.38;;;;;;;14.93;97.64;93264.09;2121873;27;20042;-72
2022/07/20 01:56:59;;;;;;;9.75;6.55;;;;;;;14.98;97.45;93268.16;2122415;27;20031;-72
2022/07/20 01:58:00;;;;;;;12.77;6.60;;;;;;;14.98;97.42;93270.84;2122266;27;20050;-73
2022/07/20 01:59:01;;;;;;;12.75;6.47;;;;;;;14.94;98.10;93273.66;2122798;27;20019;-73
2022/07/20 02:00:06;;;;;;;9.68;6.93;;;;;;;14.84;98.88;93272.13;2122272;27;20031;-72
2022/07/20 02:01:07;;;;;;;13.50;6.68;;;;;;;14.84;98.24;93272.13;2122227;27;20063;-73
2022/07/20 02:02:08;;;;;;;13.40;7.22;;;;;;;14.80;97.91;93271.50;2121970;27;20039;-73
2022/07/20 02:03:09;;;;;;;15.48;8.00;;;;;;;14.89;98.05;93268.84;2122264;27;20030;-74
2022/07/20 02:04:10;;;;;;;13.15;6.18;;;;;;;14.95;97.59;93272.47;2122579;27;20031;-74
2022/07/20 02:05:11;;;;;;;13.18;6.30;;;;;;;14.86;98.34;93272.41;2122485;27;20038;-74
2022/07/20 02:06:12;;;;;;;13.27;6.70;;;;;;;14.88;98.36;93275.41;2122275;27;20027;-75
2022/07/20 02:07:13;;;;;;;9.60;6.88;;;;;;;14.88;98.41;93267.34;2122124;27;20110;-74
2022/07/20 02:08:14;;;;;;;12.40;6.93;;;;;;;14.89;99.53;93271.56;2122266;27;20042;-74
2022/07/20 02:09:15;;;;;;;12.98;6.63;;;;;;;14.87;99.04;93263.16;2122445;27;20035;-74
2022/07/20 02:10:16;;;;;;;12.60;7.38;;;;;;;14.79;99.77;93273.44;2122679;27;20023;-74
2022/07/20 02:11:17;;;;;;;11.95;7.38;;;;;;;14.76;100.00;93268.91;2122445;27;20630;-74
2022/07/20 02:12:19;;;;;;;10.50;6.65;;;;;;;14.74;100.00;93276.66;2121626;27;20042;-74
2022/07/20 02:13:20;;;;;;;12.30;6.45;;;;;;;14.78;99.75;93279.25;2122223;27;20035;-75
2022/07/20 02:14:21;;;;;;;15.25;6.53;;;;;;;14.80;100.00;93274.94;2122100;27;20060;-74
2022/07/20 02:16:41;;;;;;;12.30;7.05;;;;;;;14.76;100.00;93273.56;2122215;27;20026;-74
2022/07/20 02:17:42;;;;;;;8.68;6.63;;;;;;;14.82;100.00;93274.47;2122271;27;20492;-75
2022/07/20 02:18:52;;;;;;;13.00;7.70;;;;;;;14.75;100.00;93272.81;2122164;27;20537;-73
2022/07/20 02:19:53;;;;;;;11.40;6.97;;;;;;;14.80;100.00;93268.81;2122146;27;20118;-73
2022/07/20 02:20:54;;;;;;;11.73;7.20;;;;;;;14.78;100.00;93277.28;2123082;27;20235;-73
2022/07/20 02:21:55;;;;;;;11.70;7.15;;;;;;;14.76;100.00;93277.00;2121849;27;20058;-73
2022/07/20 02:22:56;;;;;;;13.30;7.70;;;;;;;14.77;100.00;93278.50;2121963;27;20059;-74
2022/07/20 02:23:58;;;;;;;10.65;7.30;;;;;;;14.76;100.00;93270.88;2122790;27;20587;-75
2022/07/20 02:24:59;;;;;;;11.93;7.18;;;;;;;14.78;100.00;93271.16;2121411;27;20023;-74
2022/07/20 02:26:00;;;;;;;14.60;7.05;;;;;;;14.76;100.00;93262.78;2122088;27;20027;-73
2022/07/20 02:27:00;;;;;;;10.32;6.75;;;;;;;14.74;100.00;93265.91;2122731;27;20023;-73
2022/07/20 02:28:06;;;;;;;22.13;8.27;;;;;;;14.66;100.00;93266.59;2122473;27;20035;-73
2022/07/20 02:29:06;;;;;;;9.52;6.93;;;;;;;14.77;100.00;93266.97;2122871;27;20030;-72
2022/07/20 02:30:08;;;;;;;13.55;7.47;;;;;;;14.70;100.00;93262.59;2123726;27;20372;-72
2022/07/20 02:31:09;;;;;;;12.07;7.13;;;;;;;14.76;100.00;93260.09;2121623;27;20106;-73
2022/07/20 02:32:11;;;;;;;10.15;7.15;;;;;;;14.75;100.00;93270.13;2124225;27;20027;-71
2022/07/20 02:33:11;;;;;;;14.20;7.32;;;;;;;14.77;100.00;93264.28;2122344;27;20023;-71
2022/07/20 02:34:13;;;;;;;12.18;7.28;;;;;;;14.79;100.00;93254.59;2122657;27;20084;-77
2022/07/20 02:35:14;;;;;;;13.38;7.28;;;;;;;14.83;100.00;93262.53;2113355;28;20028;-72
2022/07/20 02:36:17;;;;;;;11.82;7.38;;;;;;;14.73;100.00;93271.72;2113098;28;20038;-72
2022/07/20 02:37:18;;;;;;;13.23;6.97;;;;;;;14.82;100.00;93258.34;2121511;27;20039;-71
2022/07/20 02:38:20;;;;;;;9.32;6.82;;;;;;;14.80;100.00;93258.03;2123042;27;20437;-72
2022/07/20 02:39:21;;;;;;;10.88;7.00;;;;;;;14.78;100.00;93265.78;2113905;28;20682;-71
2022/07/20 02:40:22;;;;;;;11.65;6.95;;;;;;;14.76;100.00;93262.78;2113454;28;20028;-71
2022/07/20 02:41:23;;;;;;;9.73;7.25;;;;;;;14.71;100.00;93261.41;2112801;28;20034;-72
2022/07/20 02:42:23;;;;;;;11.98;7.07;;;;;;;14.75;100.00;93263.97;2113408;28;20462;-72
2022/07/20 02:43:24;;;;;;;12.45;7.28;;;;;;;14.74;100.00;93262.47;2122391;27;20050;-70
2022/07/20 02:44:25;;;;;;;16.80;6.97;;;;;;;14.59;100.00;93264.91;2121698;27;20063;-72
2022/07/20 02:45:27;;;;;;;10.35;6.72;;;;;;;14.67;100.00;93260.03;2122254;27;20099;-70
2022/07/20 02:46:28;;;;;;;9.63;6.63;;;;;;;14.68;100.00;93256.16;2122417;27;20027;-71
2022/07/20 02:47:29;;;;;;;16.25;6.90;;;;;;;14.69;100.00;93246.88;2122092;27;20035;-72
2022/07/20 02:48:30;;;;;;;9.25;7.00;;;;;;;14.71;100.00;93256.03;2122376;27;20027;-71
2022/07/20 02:49:31;;;;;;;12.80;7.43;;;;;;;14.69;100.00;93257.66;2122019;27;20463;-70
2022/07/20 02:50:38;;;;;;;9.95;7.00;;;;;;;14.68;100.00;93250.78;2122100;27;20102;-71
2022/07/20 02:51:39;;;;;;;10.18;6.93;;;;;;;14.74;100.00;93249.75;2121779;27;20031;-71
2022/07/20 02:52:42;;;;;;;10.73;7.80;;;;;;;14.75;100.00;93247.81;2122523;27;20548;-71
2022/07/20 02:53:42;;;;;;;10.68;7.20;;;;;;;14.75;100.00;93245.91;2122448;27;20031;-71
2022/07/20 02:54:43;;;;;;;10.55;7.05;;;;;;;14.72;100.00;93246.03;2121531;27;20043;-71
2022/07/20 02:55:45;;;;;;;10.35;7.15;;;;;;;14.74;100.00;93246.31;2122715;27;20055;-71
2022/07/20 02:56:46;;;;;;;9.00;7.40;;;;;;;14.61;100.00;93243.69;2123121;27;20030;-71
2022/07/20 02:57:47;;;;;;;9.95;6.90;;;;;;;14.59;100.00;93249.53;2121814;27;20031;-71
2022/07/20 02:58:48;;;;;;;16.27;6.95;;;;;;;14.55;100.00;93242.75;2122060;27;20023;-71
2022/07/20 02:59:49;;;;;;;8.98;7.32;;;;;;;14.64;100.00;93247.47;2120318;27;20534;-71
2022/07/20 03:00:50;;;;;;;7.50;6.63;;;;;;;14.65;100.00;93259.72;2123335;27;20357;-71
2022/07/20 03:01:51;;;;;;;8.38;6.32;;;;;;;14.67;100.00;93244.66;2122043;27;20629;-72
2022/07/20 03:02:52;;;;;;;8.65;6.95;;;;;;;14.68;99.24;93254.22;2122669;27;20157;-71
2022/07/20 03:03:53;;;;;;;10.00;7.28;;;;;;;14.65;99.90;93244.31;2122995;27;20023;-71
2022/07/20 03:04:54;;;;;;;7.72;6.50;;;;;;;14.69;98.14;93242.25;2121618;27;20039;-70
2022/07/20 03:05:55;;;;;;;8.60;7.15;;;;;;;14.65;97.94;93251.63;2122550;27;20038;-72
2022/07/20 03:06:56;;;;;;;9.15;6.95;;;;;;;14.62;98.16;93250.59;2122080;27;20046;-71
2022/07/20 03:07:57;;;;;;;8.35;7.15;;;;;;;14.58;98.12;93247.28;2113842;28;20442;-72
2022/07/20 03:08:58;;;;;;;9.80;7.68;;;;;;;14.55;99.14;93253.53;2112979;27;20070;-72
2022/07/20 03:09:59;;;;;;;9.32;6.47;;;;;;;14.57;99.02;93251.91;2121219;27;20050;-71
2022/07/20 03:11:00;;;;;;;11.02;7.53;;;;;;;14.62;97.61;93255.97;2122591;27;20031;-71
2022/07/20 03:12:01;;;;;;;8.35;6.68;;;;;;;14.64;97.55;93256.28;2117824;27;20031;-73
2022/07/20 03:13:02;;;;;;;10.88;7.70;;;;;;;14.67;96.85;93236.56;2122528;27;20111;-70
2022/07/20 03:14:03;;;;;;;9.35;7.45;;;;;;;14.59;97.77;93249.53;2120684;27;20043;-71
2022/07/20 03:15:06;;;;;;;9.65;7.45;;;;;;;14.58;97.59;93245.34;2121800;27;20058;-71
2022/07/20 03:16:07;;;;;;;10.20;7.55;;;;;;;14.61;97.10;93249.81;2122523;27;20023;-71
2022/07/20 03:17:08;;;;;;;11.25;7.18;;;;;;;14.56;97.91;93253.06;2122380;27;20372;-70
2022/07/20 03:18:09;;;;;;;14.32;7.68;;;;;;;14.55;97.09;93246.19;2123225;27;20084;-70
2022/07/20 03:19:10;;;;;;;9.23;7.40;;;;;;;14.60;97.01;93250.25;2123240;27;20457;-70
2022/07/20 03:20:14;;;;;;;10.75;7.15;;;;;;;14.60;96.48;93255.66;2124100;27;20034;-70
2022/07/20 03:21:15;;;;;;;7.95;6.80;;;;;;;14.65;95.98;93249.69;2123600;27;20122;-71
2022/07/20 03:22:16;;;;;;;9.15;7.63;;;;;;;14.66;95.62;93258.53;2123713;27;20379;-70
2022/07/20 03:23:17;;;;;;;10.15;7.00;;;;;;;14.65;95.09;93260.47;2124132;27;20030;-70
2022/07/20 03:24:18;;;;;;;8.35;7.22;;;;;;;14.64;95.41;93258.22;2123847;27;20078;-70
2022/07/20 03:25:19;;;;;;;8.57;7.05;;;;;;;14.67;95.39;93249.28;2122511;27;20082;-70
2022/07/20 03:26:21;;;;;;;8.15;6.45;;;;;;;14.70;95.14;93248.38;2123990;27;20061;-70
2022/07/20 03:27:22;;;;;;;9.95;6.90;;;;;;;14.66;94.96;93253.13;2123584;27;20038;-70
2022/07/20 03:28:23;;;;;;;10.38;7.25;;;;;;;14.63;95.17;93259.41;2123761;27;20365;-70
2022/07/20 03:29:24;;;;;;;8.57;6.80;;;;;;;14.59;95.93;93254.16;2123250;27;20043;-70
2022/07/20 03:30:26;;;;;;;9.20;7.15;;;;;;;14.65;95.28;93257.03;2122955;27;20027;-70
2022/07/20 03:31:27;;;;;;;9.10;6.88;;;;;;;14.61;95.73;93259.84;2124176;27;20342;-70
2022/07/20 03:32:28;;;;;;;12.82;7.30;;;;;;;14.64;95.49;93255.53;2123119;27;20034;-71
2022/07/20 03:33:29;;;;;;;11.88;7.30;;;;;;;14.56;96.15;93266.53;2123019;27;20031;-70
2022/07/20 03:34:30;;;;;;;11.45;7.07;;;;;;;14.61;96.08;93265.97;2114651;27;20047;-70
2022/07/20 03:35:31;;;;;;;12.13;7.60;;;;;;;14.60;96.49;93258.34;2114721;27;20024;-70
2022/07/20 03:36:32;;;;;;;8.38;7.00;;;;;;;14.65;96.27;93262.41;2123803;27;20448;-70
2022/07/20 03:37:33;;;;;;;9.95;7.57;;;;;;;14.58;97.45;93253.41;2123223;27;20019;-70
2022/07/20 03:38:35;;;;;;;9.55;7.18;;;;;;;14.62;96.44;93255.97;2123419;27;20041;-70
2022/07/20 03:39:36;;;;;;;9.15;6.57;;;;;;;14.63;96.64;93262.09;2123482;27;20022;-71
2022/07/20 03:40:36;;;;;;;8.43;7.00;;;;;;;14.57;97.13;93262.66;2123238;27;20035;-70
2022/07/20 03:41:37;;;;;;;11.48;7.35;;;;;;;14.59;96.72;93259.53;2124046;27;20411;-70
2022/07/20 03:42:39;;;;;;;9.55;7.50;;;;;;;14.59;97.00;93260.28;2123341;27;20042;-70
2022/07/20 03:43:39;;;;;;;9.98;7.57;;;;;;;14.61;97.08;93260.56;2124635;27;20087;-70
2022/07/20 03:44:40;;;;;;;11.05;6.97;;;;;;;14.57;97.46;93256.50;2123301;27;20023;-70
2022/07/20 03:45:41;;;;;;;10.02;6.95;;;;;;;14.61;97.09;93262.53;2123383;27;20034;-70
2022/07/20 03:46:42;;;;;;;9.82;8.02;;;;;;;14.56;98.67;93265.78;2123452;27;20038;-70
2022/07/20 03:47:43;;;;;;;8.35;6.57;;;;;;;14.55;100.00;93265.03;2124013;27;20043;-70
2022/07/20 03:48:44;;;;;;;11.25;7.50;;;;;;;14.59;99.25;93268.34;2123522;27;20054;-70
2022/07/20 03:49:45;;;;;;;12.90;8.05;;;;;;;14.60;99.26;93259.09;2123998;27;20491;-70
2022/07/20 03:50:48;;;;;;;10.30;7.22;;;;;;;14.58;99.21;93264.16;2114562;27;20026;-71
2022/07/20 03:51:49;;;;;;;11.63;7.57;;;;;;;14.64;98.57;93261.66;2115295;27;20035;-70
2022/07/20 03:52:51;;;;;;;9.25;7.20;;;;;;;14.67;99.11;93262.72;2123273;27;20027;-70
2022/07/20 03:53:52;;;;;;;9.18;7.03;;;;;;;14.70;98.44;93264.53;2124475;27;20107;-70
2022/07/20 03:54:53;;;;;;;10.98;7.30;;;;;;;14.71;98.85;93260.66;2124494;27;20150;-70
2022/07/20 03:55:54;;;;;;;10.20;7.30;;;;;;;14.70;100.00;93259.91;2123782;27;20057;-70
2022/07/20 03:56:55;;;;;;;9.52;7.13;;;;;;;14.70;99.52;93259.16;2122712;27;20084;-70
2022/07/20 03:57:56;;;;;;;10.35;7.45;;;;;;;14.70;99.57;93264.53;2122769;27;20046;-70
2022/07/20 03:58:57;;;;;;;11.05;7.85;;;;;;;14.69;98.77;93260.34;2123140;27;20047;-70
2022/07/20 03:59:58;;;;;;;11.00;7.35;;;;;;;14.72;98.46;93254.84;2123559;27;20023;-70
2022/07/20 04:00:59;;;;;;;10.52;8.40;;;;;;;14.73;98.85;93258.28;2123822;27;20043;-71
2022/07/20 04:02:00;;;;;;;13.50;7.70;;;;;;;14.70;99.21;93261.84;2123871;27;20061;-70
2022/07/20 04:03:01;;;;;;;11.48;7.53;;;;;;;14.69;99.80;93260.34;2123370;27;20019;-70
2022/07/20 04:04:03;;;;;;;10.63;8.02;;;;;;;14.68;99.89;93254.22;2123891;27;20507;-70
2022/07/20 04:05:05;;;;;;;10.50;7.55;;;;;;;14.69;100.00;93263.03;2123327;27;20380;-70
2022/07/20 04:06:06;;;;;;;9.63;7.78;;;;;;;14.74;100.00;93265.16;2123613;27;20031;-70
2022/07/20 04:07:07;;;;;;;13.90;8.05;;;;;;;14.71;99.73;93263.34;2123805;27;20034;-70
2022/07/20 04:08:08;;;;;;;11.40;7.93;;;;;;;14.59;100.00;93267.59;2123476;27;20042;-71
2022/07/20 04:09:09;;;;;;;9.32;7.25;;;;;;;14.70;99.06;93265.28;2123010;27;20042;-70
2022/07/20 04:10:10;;;;;;;10.70;7.95;;;;;;;14.73;96.46;93264.41;2123812;27;20039;-70
2022/07/20 04:11:11;;;;;;;10.18;7.93;;;;;;;14.72;99.14;93268.28;2123093;27;20073;-71
2022/07/20 04:12:17;;;;;;;13.45;7.65;;;;;;;14.72;99.22;93260.22;2124262;27;20051;-70
2022/07/20 04:13:19;;;;;;;10.32;8.00;;;;;;;14.71;99.07;93268.75;2122903;27;20047;-71
2022/07/20 04:14:21;;;;;;;11.85;7.70;;;;;;;14.70;98.46;93264.53;2121811;27;20476;-72
2022/07/20 04:15:22;;;;;;;10.38;7.70;;;;;;;14.74;98.17;93271.28;2123442;27;20469;-71
2022/07/20 04:16:23;;;;;;;12.90;8.20;;;;;;;14.81;99.56;93267.59;2123629;27;20037;-71
2022/07/20 04:17:24;;;;;;;11.10;8.20;;;;;;;14.81;98.71;93257.59;2123875;27;20027;-71
2022/07/20 04:18:25;;;;;;;9.23;7.90;;;;;;;14.77;99.23;93256.22;2122402;27;20039;-71
2022/07/20 04:19:26;;;;;;;9.70;7.53;;;;;;;14.80;98.08;93258.03;2122416;27;20034;-71
2022/07/20 04:20:27;;;;;;;13.25;7.78;;;;;;;14.80;98.92;93260.72;2123724;27;20106;-71
2022/07/20 04:21:28;;;;;;;10.90;7.88;;;;;;;14.83;98.59;93257.13;2122721;27;20042;-70
2022/07/20 04:22:29;;;;;;;11.75;7.80;;;;;;;14.88;98.15;93264.66;2123042;27;20035;-72
2022/07/20 04:23:30;;;;;;;11.40;8.13;;;;;;;14.89;98.33;93257.34;2123472;27;20023;-70
2022/07/20 04:24:30;;;;;;;12.45;7.47;;;;;;;14.89;98.10;93262.72;2123122;27;20464;-70
2022/07/20 04:25:32;;;;;;;9.18;7.32;;;;;;;14.89;98.12;93263.47;2123284;27;20035;-70
2022/07/20 04:26:32;;;;;;;15.02;7.63;;;;;;;14.94;98.81;93260.22;2123019;27;20049;-71
2022/07/20 04:27:33;;;;;;;11.02;7.55;;;;;;;14.94;99.13;93262.16;2123698;27;20854;-71
2022/07/20 04:28:37;;;;;;;12.82;7.40;;;;;;;14.99;98.29;93259.63;2122570;27;20061;-70
2022/07/20 04:29:38;;;;;;;10.60;8.55;;;;;;;14.92;100.00;93257.19;2123236;27;20365;-70
2022/07/20 04:30:39;;;;;;;13.85;7.80;;;;;;;14.93;99.37;93261.41;2123782;27;20389;-70
2022/07/20 04:31:44;;;;;;;11.55;7.55;;;;;;;14.96;99.46;93260.50;2122672;27;20054;-71
2022/07/20 04:32:45;;;;;;;11.60;7.35;;;;;;;15.00;98.53;93255.00;2123715;27;20152;-71
2022/07/20 04:33:46;;;;;;;11.20;7.57;;;;;;;14.97;100.00;93256.66;2123109;27;20448;-71
2022/07/20 04:34:47;;;;;;;14.10;7.63;;;;;;;14.95;100.00;93259.00;2123905;27;20033;-70
2022/07/20 04:35:48;;;;;;;11.45;7.95;;;;;;;15.03;100.00;93256.81;2123563;27;20022;-70
2022/07/20 04:36:49;;;;;;;14.45;7.38;;;;;;;15.03;100.00;93264.91;2121157;27;20031;-70
2022/07/20 04:37:50;;;;;;;12.60;7.60;;;;;;;15.03;100.00;93262.94;2124354;27;20163;-69
2022/07/20 04:38:51;;;;;;;12.15;7.65;;;;;;;15.12;100.00;93262.25;2123068;27;20406;-70
2022/07/20 04:39:52;;;;;;;11.60;7.40;;;;;;;15.10;100.00;93270.00;2123621;27;20031;-70
2022/07/20 04:40:53;;;;;;;9.80;7.32;;;;;;;15.17;100.00;93269.75;2123237;27;20038;-69
2022/07/20 04:41:54;;;;;;;10.30;7.72;;;;;;;15.20;99.99;93262.75;2122649;27;20042;-70
2022/07/20 04:42:55;;;;;;;8.57;7.28;;;;;;;15.20;100.00;93271.56;2123622;27;20019;-69
2022/07/20 04:43:56;;;;;;;10.10;7.57;;;;;;;15.22;100.00;93268.44;2122348;27;20023;-69
2022/07/20 04:44:57;;;;;;;18.55;7.90;;;;;;;15.30;100.00;93266.97;2123458;27;20035;-70
2022/07/20 04:45:58;;;;;;;9.48;7.18;;;;;;;15.29;100.00;93268.19;2123121;27;20031;-71
2022/07/20 04:46:59;;;;;;;11.68;8.07;;;;;;;15.29;99.82;93268.19;2122635;27;20113;-70
2022/07/20 04:48:00;;;;;;;16.00;8.43;;;;;;;15.41;97.91;93261.19;2113618;27;20033;-71
2022/07/20 04:49:01;;;;;;;10.00;7.78;;;;;;;15.49;97.28;93265.84;2113582;27;20529;-69